Time;durP1;ratioP1;P1;durP2;ratioP2;P2;SDS_P1;SDS_P2;PMS_P1;PMS_P2;Temp;Humidity;BMP_temperature;BMP_pressure;BME280_temperature;BME280_humidity;BME280_pressure;Samples;Min_cycle;Max_cycle;Signal;HPM_P1;HPM_P2
2021/09/24 00:00:13;;;;;;;14.10;2.42;;;17.70;97.30;;;;;;5057978;28;20212;-69
2021/09/24 00:02:39;;;;;;;16.17;2.47;;;17.70;97.30;;;;;;5036553;28;20194;-71
2021/09/24 00:05:05;;;;;;;15.63;2.85;;;17.70;97.30;;;;;;5061412;28;20194;-70
2021/09/24 00:07:31;;;;;;;12.95;2.22;;;17.70;97.30;;;;;;5059339;28;22001;-70
2021/09/24 00:09:56;;;;;;;14.85;2.28;;;17.70;97.30;;;;;;5062682;28;20194;-70
2021/09/24 00:12:22;;;;;;;7.85;2.00;;;17.70;97.30;;;;;;5043166;28;20186;-72
2021/09/24 00:14:48;;;;;;;15.88;2.05;;;17.70;97.40;;;;;;5059529;28;20650;-71
2021/09/24 00:17:14;;;;;;;12.00;2.05;;;17.70;97.40;;;;;;5060202;28;20241;-72
2021/09/24 00:19:39;;;;;;;15.98;2.60;;;17.70;97.40;;;;;;5067538;28;20247;-72
2021/09/24 00:22:05;;;;;;;10.60;2.00;;;17.80;97.40;;;;;;5065220;28;20190;-71
2021/09/24 00:24:31;;;;;;;11.82;2.20;;;17.80;97.40;;;;;;5048127;28;20211;-71
2021/09/24 00:26:56;;;;;;;12.20;2.17;;;17.80;97.40;;;;;;5066950;28;20240;-73
2021/09/24 00:29:22;;;;;;;18.38;2.50;;;17.80;97.40;;;;;;5060134;28;20202;-71
2021/09/24 00:31:48;;;;;;;17.92;2.60;;;17.80;97.40;;;;;;5066592;28;20192;-72
2021/09/24 00:34:13;;;;;;;13.15;2.10;;;17.70;97.50;;;;;;5044957;28;20793;-73
2021/09/24 00:36:39;;;;;;;14.82;2.90;;;17.70;97.50;;;;;;5047232;28;20187;-71
2021/09/24 00:39:04;;;;;;;14.05;2.72;;;17.70;97.50;;;;;;5063687;28;20179;-72
2021/09/24 00:41:30;;;;;;;12.02;2.42;;;17.70;97.60;;;;;;5065379;28;20263;-72
2021/09/24 00:43:55;;;;;;;16.75;2.60;;;17.70;97.60;;;;;;5065038;28;20178;-71
2021/09/24 00:46:21;;;;;;;10.38;2.10;;;17.70;97.70;;;;;;5064140;28;20265;-70
2021/09/24 00:48:47;;;;;;;12.48;2.20;;;17.70;97.70;;;;;;5064550;28;20190;-72
2021/09/24 00:51:14;;;;;;;18.33;2.65;;;17.70;97.70;;;;;;5065425;28;20643;-72
2021/09/24 00:53:39;;;;;;;16.70;2.53;;;17.70;97.80;;;;;;5063912;28;20188;-71
2021/09/24 00:56:07;;;;;;;10.18;2.55;;;17.70;97.80;;;;;;5066861;28;20197;-70
2021/09/24 00:58:33;;;;;;;22.77;2.70;;;17.60;97.80;;;;;;5046006;28;20564;-71
2021/09/24 01:00:58;;;;;;;21.23;2.42;;;17.60;97.90;;;;;;5061527;28;20187;-71
2021/09/24 01:03:25;;;;;;;9.75;2.15;;;17.60;97.90;;;;;;5055296;28;20202;-70
2021/09/24 01:05:50;;;;;;;10.60;2.25;;;17.60;98.00;;;;;;5060333;28;20864;-70
2021/09/24 01:08:16;;;;;;;10.32;2.35;;;17.60;98.00;;;;;;5064522;28;20195;-71
2021/09/24 01:10:43;;;;;;;12.93;2.85;;;17.60;98.10;;;;;;5064182;28;20198;-71
2021/09/24 01:13:08;;;;;;;17.42;2.58;;;17.50;98.10;;;;;;5047459;28;20193;-71
2021/09/24 01:15:34;;;;;;;14.13;2.58;;;17.50;98.20;;;;;;5064069;28;20694;-73
2021/09/24 01:18:00;;;;;;;21.98;2.65;;;17.50;98.20;;;;;;5066113;28;20195;-72
2021/09/24 01:20:26;;;;;;;19.20;2.50;;;17.40;98.30;;;;;;5063288;28;20236;-70
2021/09/24 01:22:52;;;;;;;12.18;2.80;;;17.40;98.30;;;;;;5067894;28;20562;-71
2021/09/24 01:25:21;;;;;;;16.80;2.70;;;17.40;98.40;;;;;;5070832;28;20244;-71
2021/09/24 01:27:47;;;;;;;20.23;2.50;;;17.40;98.40;;;;;;5074357;28;20197;-71
2021/09/24 01:30:15;;;;;;;11.85;2.45;;;17.40;98.50;;;;;;5069112;28;20190;-72
2021/09/24 01:32:42;;;;;;;17.13;2.53;;;17.40;98.50;;;;;;5053410;28;20225;-72
2021/09/24 01:35:08;;;;;;;16.05;2.33;;;17.40;98.60;;;;;;5069879;28;20645;-71
2021/09/24 01:37:34;;;;;;;17.70;2.33;;;17.40;98.60;;;;;;5071121;28;20183;-71
2021/09/24 01:40:01;;;;;;;22.02;2.78;;;17.40;98.60;;;;;;5072423;28;20673;-72
2021/09/24 01:42:26;;;;;;;12.93;2.40;;;17.40;98.70;;;;;;5056208;28;20715;-71
2021/09/24 01:44:52;;;;;;;15.38;2.70;;;17.40;98.70;;;;;;5072954;28;20273;-71
2021/09/24 01:47:18;;;;;;;15.05;3.00;;;17.40;98.70;;;;;;5074255;28;20560;-71
2021/09/24 01:49:43;;;;;;;18.38;3.17;;;17.40;98.80;;;;;;5055895;28;20190;-72
2021/09/24 01:52:09;;;;;;;17.27;2.85;;;17.30;98.80;;;;;;5072630;28;20669;-71
2021/09/24 01:54:35;;;;;;;14.80;2.58;;;17.30;98.80;;;;;;5056546;28;20206;-71
2021/09/24 01:57:01;;;;;;;11.48;2.03;;;17.40;98.90;;;;;;5069418;28;20189;-71
2021/09/24 01:59:26;;;;;;;17.15;2.53;;;17.30;98.80;;;;;;5071659;28;20192;-72
2021/09/24 02:01:52;;;;;;;15.60;2.30;;;17.30;98.90;;;;;;5052246;28;20198;-70
2021/09/24 02:04:18;;;;;;;9.55;2.25;;;17.30;98.90;;;;;;5071672;28;20628;-70
2021/09/24 02:06:44;;;;;;;12.55;2.53;;;17.30;99.00;;;;;;5076580;28;20193;-70
2021/09/24 02:09:10;;;;;;;13.63;2.28;;;17.40;99.00;;;;;;5071880;28;20264;-70
2021/09/24 02:11:36;;;;;;;19.27;2.83;;;17.30;99.00;;;;;;5075606;28;20189;-71
2021/09/24 02:14:02;;;;;;;13.15;2.72;;;17.40;99.00;;;;;;5057088;28;20243;-72
2021/09/24 02:16:28;;;;;;;17.38;2.42;;;17.30;99.00;;;;;;5081254;28;20534;-71
2021/09/24 02:18:53;;;;;;;19.02;2.83;;;17.30;99.10;;;;;;5078191;28;20484;-73
2021/09/24 02:21:20;;;;;;;13.82;2.33;;;17.30;99.10;;;;;;5075365;28;20248;-73
2021/09/24 02:23:46;;;;;;;16.63;3.03;;;17.30;99.10;;;;;;5050199;28;20293;-70
2021/09/24 02:26:12;;;;;;;7.18;2.50;;;17.40;99.20;;;;;;5070567;28;20232;-73
2021/09/24 02:28:38;;;;;;;11.82;2.72;;;17.30;99.20;;;;;;5071353;28;20191;-72
2021/09/24 02:31:08;;;;;;;21.20;2.47;;;17.40;99.20;;;;;;5053531;28;20206;-72
2021/09/24 02:33:35;;;;;;;10.73;2.40;;;17.30;99.20;;;;;;5056377;28;20197;-72
2021/09/24 02:36:01;;;;;;;22.88;2.30;;;17.30;99.30;;;;;;5073395;28;20214;-73
2021/09/24 02:38:27;;;;;;;20.85;2.90;;;17.30;99.30;;;;;;5073022;28;20186;-72
2021/09/24 02:40:52;;;;;;;14.23;2.67;;;17.30;99.40;;;;;;5071690;28;20194;-71
2021/09/24 02:43:18;;;;;;;10.30;2.45;;;17.30;99.40;;;;;;5075799;28;20611;-72
2021/09/24 02:45:43;;;;;;;14.85;2.33;;;17.30;99.50;;;;;;5069512;28;20195;-72
2021/09/24 02:48:09;;;;;;;19.95;3.22;;;17.30;99.50;;;;;;5069909;28;20268;-72
2021/09/24 02:50:35;;;;;;;19.58;3.13;;;17.30;99.50;;;;;;5070065;28;20685;-72
2021/09/24 02:53:00;;;;;;;10.30;2.42;;;17.30;99.50;;;;;;5071396;28;20186;-71
2021/09/24 02:55:26;;;;;;;13.63;2.83;;;17.30;99.50;;;;;;5072869;28;20222;-72
2021/09/24 02:57:52;;;;;;;14.07;2.42;;;17.30;99.50;;;;;;5071573;28;20183;-72
2021/09/24 03:00:17;;;;;;;18.00;2.60;;;17.30;99.50;;;;;;5067249;28;20626;-72
2021/09/24 03:02:43;;;;;;;16.38;2.67;;;17.30;99.50;;;;;;5070871;28;20170;-71
2021/09/24 03:05:09;;;;;;;11.88;2.50;;;17.40;99.50;;;;;;5070098;28;20273;-73
2021/09/24 03:07:35;;;;;;;10.02;2.30;;;17.30;99.50;;;;;;5071437;28;20196;-73
2021/09/24 03:10:00;;;;;;;12.60;2.25;;;17.30;99.50;;;;;;5073179;28;20187;-71
2021/09/24 03:12:26;;;;;;;10.95;2.45;;;17.30;99.50;;;;;;5067810;28;20273;-71
2021/09/24 03:14:52;;;;;;;12.38;2.53;;;17.30;99.50;;;;;;5069339;28;20202;-71
2021/09/24 03:17:17;;;;;;;15.77;2.50;;;17.30;99.50;;;;;;5069013;28;20994;-71
2021/09/24 03:19:43;;;;;;;8.10;2.20;;;17.20;99.50;;;;;;5066517;28;20893;-71
2021/09/24 03:22:09;;;;;;;12.32;2.70;;;17.20;99.50;;;;;;5051998;28;20188;-72
2021/09/24 03:24:35;;;;;;;;;;;17.20;99.80;;;;;;5069402;28;20219;-72
2021/09/24 03:27:00;;;;;;;12.15;2.30;;;17.20;99.50;;;;;;5049641;28;20463;-70
2021/09/24 03:29:27;;;;;;;8.30;1.98;;;17.10;99.50;;;;;;5074659;28;20190;-72
2021/09/24 03:31:53;;;;;;;11.52;2.00;;;17.20;99.60;;;;;;5071733;28;20210;-71
2021/09/24 03:34:18;;;;;;;;;;;17.10;99.60;;;;;;5069956;28;20244;-70
2021/09/24 03:36:44;;;;;;;8.63;2.10;;;17.10;99.60;;;;;;5067371;28;20177;-72
2021/09/24 03:39:13;;;;;;;10.32;2.10;;;17.10;99.60;;;;;;5068300;28;20198;-72
2021/09/24 03:41:40;;;;;;;13.68;2.50;;;17.10;99.60;;;;;;5068222;28;20240;-73
2021/09/24 03:44:06;;;;;;;6.82;2.03;;;17.00;99.60;;;;;;5084713;28;20191;-71
2021/09/24 03:46:32;;;;;;;13.23;2.40;;;17.00;99.70;;;;;;5079216;28;20238;-71
2021/09/24 03:48:58;;;;;;;12.55;2.50;;;17.10;99.70;;;;;;5074902;28;20185;-71
2021/09/24 03:51:24;;;;;;;12.35;2.80;;;17.00;99.80;;;;;;5069014;28;20204;-70
2021/09/24 03:53:50;;;;;;;14.13;2.45;;;17.00;99.90;;;;;;5068769;28;20195;-72
2021/09/24 03:56:16;;;;;;;15.02;2.55;;;17.00;99.90;;;;;;5075670;28;20332;-71
2021/09/24 03:58:41;;;;;;;15.88;2.33;;;17.00;99.90;;;;;;5074640;28;20265;-71
2021/09/24 04:01:07;;;;;;;14.15;2.25;;;17.00;99.90;;;;;;5067873;28;20178;-70
2021/09/24 04:03:33;;;;;;;6.88;2.28;;;17.00;99.90;;;;;;5072432;28;20264;-71
2021/09/24 04:05:58;;;;;;;11.82;2.20;;;17.00;99.90;;;;;;5074624;28;20225;-71
2021/09/24 04:08:24;;;;;;;8.15;2.35;;;16.90;99.90;;;;;;5078515;28;20194;-72
2021/09/24 04:10:51;;;;;;;15.20;2.60;;;16.90;99.90;;;;;;5068656;28;20193;-72
2021/09/24 04:13:17;;;;;;;10.82;2.55;;;16.90;99.90;;;;;;5066986;28;20182;-71
2021/09/24 04:15:43;;;;;;;11.93;2.90;;;17.00;99.90;;;;;;5070281;28;20206;-71
2021/09/24 04:18:09;;;;;;;14.98;2.45;;;16.90;99.90;;;;;;5050776;28;21030;-71
2021/09/24 04:20:34;;;;;;;6.47;2.30;;;16.90;99.90;;;;;;5071288;28;20566;-73
2021/09/24 04:23:00;;;;;;;7.85;2.70;;;16.90;99.90;;;;;;5087271;28;20301;-72
2021/09/24 04:25:26;;;;;;;9.57;2.20;;;17.00;99.90;;;;;;5068742;28;20214;-72
2021/09/24 04:27:51;;;;;;;7.75;2.92;;;16.90;99.90;;;;;;5067411;28;20182;-72
2021/09/24 04:30:17;;;;;;;11.23;2.13;;;16.90;99.90;;;;;;5069058;28;20190;-72
2021/09/24 04:32:43;;;;;;;11.82;2.67;;;17.00;99.90;;;;;;5069074;28;20210;-71
2021/09/24 04:35:09;;;;;;;11.57;2.65;;;16.90;99.90;;;;;;5104200;28;20221;-70
2021/09/24 04:37:34;;;;;;;12.43;2.70;;;16.90;99.90;;;;;;5068459;28;20673;-72
2021/09/24 04:40:00;;;;;;;8.32;2.78;;;16.90;99.90;;;;;;5069363;28;20187;-69
2021/09/24 04:42:27;;;;;;;11.48;2.60;;;16.90;99.90;;;;;;5069085;28;20191;-71
2021/09/24 04:44:52;;;;;;;10.48;2.90;;;16.90;99.90;;;;;;5066905;28;20273;-72
2021/09/24 04:47:18;;;;;;;12.48;3.22;;;16.80;99.90;;;;;;5072433;28;20316;-72
2021/09/24 04:49:44;;;;;;;9.43;2.72;;;16.80;99.90;;;;;;5068229;28;20201;-70
2021/09/24 04:52:09;;;;;;;9.00;2.40;;;16.70;99.90;;;;;;5072667;28;21079;-72
2021/09/24 04:54:35;;;;;;;;;;;16.70;99.90;;;;;;5074172;28;20426;-70
2021/09/24 04:57:00;;;;;;;8.82;3.45;;;16.70;99.90;;;;;;5072550;28;20492;-70
2021/09/24 04:59:26;;;;;;;11.45;2.80;;;16.70;99.90;;;;;;5071926;28;20190;-72
2021/09/24 05:01:52;;;;;;;8.63;2.90;;;16.60;99.90;;;;;;5070373;28;20316;-71
2021/09/24 05:04:17;;;;;;;14.70;3.10;;;16.60;99.90;;;;;;5072211;28;20211;-73
2021/09/24 05:06:43;;;;;;;;;;;16.60;99.90;;;;;;5069565;28;20468;-70
2021/09/24 05:09:08;;;;;;;;;;;16.50;99.90;;;;;;5072262;28;19961;-72
2021/09/24 05:11:34;;;;;;;;;;;16.50;99.90;;;;;;5069088;28;20752;-72
2021/09/24 05:13:59;;;;;;;15.20;4.05;;;16.50;99.90;;;;;;5069645;28;20170;-74
2021/09/24 05:16:25;;;;;;;11.18;4.00;;;16.50;99.90;;;;;;5069552;28;20705;-73
2021/09/24 05:18:51;;;;;;;10.48;3.63;;;16.50;99.90;;;;;;5070876;28;20179;-73
2021/09/24 05:21:17;;;;;;;13.93;4.10;;;16.40;99.90;;;;;;5071171;28;20182;-71
2021/09/24 05:23:43;;;;;;;12.43;4.30;;;16.40;99.90;;;;;;5072634;28;20596;-70
2021/09/24 05:26:09;;;;;;;17.42;5.07;;;16.40;99.90;;;;;;5068719;28;20186;-71
2021/09/24 05:28:35;;;;;;;20.08;5.53;;;16.40;99.90;;;;;;5071056;28;20195;-71
2021/09/24 05:31:00;;;;;;;14.48;4.65;;;16.40;99.90;;;;;;5056831;28;20186;-71
2021/09/24 05:33:26;;;;;;;12.10;5.40;;;16.40;99.90;;;;;;5071582;28;20243;-71
2021/09/24 05:35:52;;;;;;;14.00;5.75;;;16.40;99.90;;;;;;5069639;28;20347;-71
2021/09/24 05:38:17;;;;;;;19.00;5.90;;;16.40;99.90;;;;;;5070371;28;20240;-73
2021/09/24 05:40:43;;;;;;;14.57;6.38;;;16.40;99.90;;;;;;5050544;28;20260;-71
2021/09/24 05:43:09;;;;;;;19.10;7.38;;;16.50;99.90;;;;;;5051254;28;20209;-72
2021/09/24 05:45:35;;;;;;;12.85;7.03;;;16.40;99.90;;;;;;5072075;28;20268;-73
2021/09/24 05:48:00;;;;;;;16.02;7.13;;;16.50;99.90;;;;;;5070653;28;20700;-71
2021/09/24 05:50:26;;;;;;;16.45;7.10;;;16.50;99.90;;;;;;5070107;28;20186;-71
2021/09/24 05:52:54;;;;;;;19.45;6.75;;;16.50;99.90;;;;;;5050527;28;20540;-71
2021/09/24 05:55:23;;;;;;;19.50;5.95;;;16.50;99.90;;;;;;5051077;28;20995;-72
2021/09/24 05:57:50;;;;;;;15.07;5.50;;;16.50;99.90;;;;;;5068560;28;20190;-70
2021/09/24 06:00:17;;;;;;;12.77;5.75;;;16.50;99.90;;;;;;5066534;28;20639;-71
2021/09/24 06:02:44;;;;;;;15.07;6.07;;;16.50;99.90;;;;;;5067787;28;20199;-71
2021/09/24 06:05:10;;;;;;;15.32;5.55;;;16.60;99.90;;;;;;5067949;28;20194;-72
2021/09/24 06:07:36;;;;;;;16.95;6.20;;;16.60;99.90;;;;;;5049195;28;20681;-71
2021/09/24 06:10:02;;;;;;;13.68;5.05;;;16.60;99.90;;;;;;5050487;28;20187;-71
2021/09/24 06:12:28;;;;;;;18.50;5.45;;;16.60;99.90;;;;;;5068549;28;20213;-70
2021/09/24 06:14:57;;;;;;;17.70;5.30;;;16.60;99.90;;;;;;5068001;28;20240;-72
2021/09/24 06:17:23;;;;;;;12.93;5.22;;;16.60;99.90;;;;;;5072525;28;20186;-74
2021/09/24 06:19:49;;;;;;;12.57;5.40;;;16.70;99.90;;;;;;5067903;28;20266;-73
2021/09/24 06:22:16;;;;;;;15.05;6.35;;;16.70;99.90;;;;;;5068279;28;20999;-74
2021/09/24 06:24:45;;;;;;;15.70;5.18;;;16.80;99.90;;;;;;5063563;28;20291;-73
2021/09/24 06:27:14;;;;;;;;;;;16.80;99.90;;;;;;5062604;28;20190;-74
2021/09/24 06:29:41;;;;;;;;;;;16.80;99.90;;;;;;5062428;28;19949;-73
2021/09/24 06:32:06;;;;;;;;;;;16.80;99.90;;;;;;5044306;28;19949;-72
2021/09/24 06:34:32;;;;;;;16.53;5.57;;;16.80;99.90;;;;;;5062237;28;20000;-72
2021/09/24 06:36:58;;;;;;;;;;;16.80;99.90;;;;;;5060805;28;19957;-74
2021/09/24 06:39:23;;;;;;;19.60;5.15;;;16.90;99.90;;;;;;5062328;28;20376;-73
2021/09/24 06:41:49;;;;;;;21.27;5.32;;;16.90;99.90;;;;;;5041220;28;20214;-75
2021/09/24 06:44:15;;;;;;;16.25;4.70;;;16.90;99.90;;;;;;5044594;28;20538;-74
2021/09/24 06:46:40;;;;;;;12.38;4.65;;;16.90;99.90;;;;;;5059411;28;20668;-74
2021/09/24 06:49:06;;;;;;;19.15;4.88;;;16.90;99.90;;;;;;5062553;28;20273;-73
2021/09/24 06:51:32;;;;;;;15.30;4.57;;;17.00;99.90;;;;;;5056831;28;20182;-74
2021/09/24 06:53:57;;;;;;;21.10;4.80;;;17.00;99.90;;;;;;5038891;28;20182;-73
2021/09/24 06:56:23;;;;;;;18.20;4.78;;;17.00;99.90;;;;;;5056541;28;20179;-73
2021/09/24 06:58:49;;;;;;;24.58;5.13;;;17.10;99.90;;;;;;5033669;28;20622;-72
2021/09/24 07:01:15;;;;;;;12.85;4.50;;;17.10;99.90;;;;;;5055198;28;20179;-74
2021/09/24 07:03:40;;;;;;;16.90;4.40;;;17.10;99.90;;;;;;5062711;28;20087;-73
2021/09/24 07:06:06;;;;;;;16.00;4.15;;;17.20;99.90;;;;;;5060467;28;20215;-74
2021/09/24 07:08:32;;;;;;;13.10;3.92;;;17.20;99.90;;;;;;5064048;28;20198;-73
2021/09/24 07:10:57;;;;;;;20.90;4.43;;;17.20;99.90;;;;;;5060136;28;20179;-75
2021/09/24 07:13:23;;;;;;;23.92;4.10;;;17.30;99.90;;;;;;5061271;28;20183;-73
2021/09/24 07:15:48;;;;;;;17.02;4.30;;;17.30;99.90;;;;;;5061079;28;20335;-74
2021/09/24 07:18:14;;;;;;;14.95;4.10;;;17.40;99.90;;;;;;5055622;28;20191;-74
2021/09/24 07:20:40;;;;;;;15.65;4.40;;;17.50;99.90;;;;;;5062810;28;20186;-77
2021/09/24 07:23:05;;;;;;;16.45;3.72;;;17.50;99.90;;;;;;5066761;28;20217;-74
2021/09/24 07:25:31;;;;;;;22.38;4.30;;;17.60;99.90;;;;;;5048689;28;20182;-72
2021/09/24 07:27:57;;;;;;;15.98;4.32;;;17.60;99.90;;;;;;5053691;28;20205;-74
2021/09/24 07:30:22;;;;;;;12.68;4.20;;;17.70;99.90;;;;;;5048788;28;20214;-76
2021/09/24 07:32:48;;;;;;;18.58;4.40;;;17.70;99.90;;;;;;5072974;28;20186;-75
2021/09/24 07:35:14;;;;;;;16.13;3.97;;;17.80;99.90;;;;;;5051581;28;20227;-74
2021/09/24 07:37:39;;;;;;;20.52;4.57;;;17.80;99.90;;;;;;5068416;28;20190;-73
2021/09/24 07:40:06;;;;;;;21.00;4.03;;;17.80;99.90;;;;;;5070424;28;20183;-72
2021/09/24 07:42:31;;;;;;;13.60;3.60;;;17.90;99.90;;;;;;5055513;28;20210;-73
2021/09/24 07:44:57;;;;;;;;;;;17.90;99.90;;;;;;5067189;28;20050;-72
2021/09/24 07:47:23;;;;;;;10.55;2.88;;;18.00;99.90;;;;;;5066757;28;20364;-75
2021/09/24 07:49:48;;;;;;;9.00;2.70;;;18.10;99.90;;;;;;5070203;28;20301;-74
2021/09/24 07:52:14;;;;;;;10.85;2.85;;;18.20;99.90;;;;;;5067584;28;20328;-74
2021/09/24 07:54:40;;;;;;;11.10;3.00;;;18.20;99.90;;;;;;5067547;28;20689;-72
2021/09/24 07:57:06;;;;;;;7.53;2.55;;;18.30;99.90;;;;;;5082236;28;20192;-73
2021/09/24 07:59:32;;;;;;;7.40;2.90;;;18.30;99.90;;;;;;5068665;28;20184;-73
2021/09/24 08:01:57;;;;;;;12.35;3.00;;;18.40;99.90;;;;;;5048356;28;20220;-72
2021/09/24 08:04:23;;;;;;;8.88;2.35;;;18.50;99.90;;;;;;5067889;28;20483;-72
2021/09/24 08:06:49;;;;;;;8.90;2.60;;;18.60;99.90;;;;;;5069740;28;20200;-73
2021/09/24 08:09:15;;;;;;;7.95;2.70;;;18.60;99.90;;;;;;5069492;28;20291;-73
2021/09/24 08:11:41;;;;;;;11.73;2.45;;;18.60;99.90;;;;;;5070615;28;20201;-70
2021/09/24 08:14:07;;;;;;;11.02;2.65;;;18.70;99.90;;;;;;5065843;28;20199;-71
2021/09/24 08:16:32;;;;;;;9.73;2.58;;;18.70;99.90;;;;;;5046151;28;20275;-71
2021/09/24 08:18:58;;;;;;;13.73;3.63;;;18.80;99.90;;;;;;5066042;28;20179;-72
2021/09/24 08:21:24;;;;;;;9.55;3.03;;;18.80;99.90;;;;;;5066044;28;20183;-72
2021/09/24 08:23:53;;;;;;;10.27;2.50;;;18.90;99.90;;;;;;5059724;28;20272;-71
2021/09/24 08:26:20;;;;;;;7.97;2.50;;;18.90;99.90;;;;;;5063536;28;20186;-73
2021/09/24 08:28:46;;;;;;;7.88;2.50;;;19.00;99.90;;;;;;5058432;28;20595;-72
2021/09/24 08:31:12;;;;;;;11.20;2.65;;;19.10;99.90;;;;;;5063648;28;20256;-72
2021/09/24 08:33:38;;;;;;;10.60;2.45;;;19.10;99.90;;;;;;5063317;28;20183;-72
2021/09/24 08:36:04;;;;;;;8.82;2.75;;;19.20;99.90;;;;;;5061274;28;20202;-71
2021/09/24 08:38:30;;;;;;;8.75;2.60;;;19.20;99.90;;;;;;5064580;28;20207;-71
2021/09/24 08:40:55;;;;;;;9.88;2.25;;;19.20;99.90;;;;;;5043887;28;20182;-71
2021/09/24 08:43:21;;;;;;;13.27;2.67;;;19.30;99.80;;;;;;5063314;28;20197;-71
2021/09/24 08:45:48;;;;;;;6.25;2.30;;;19.30;99.50;;;;;;5063019;28;20623;-72
2021/09/24 08:48:15;;;;;;;7.28;2.50;;;19.40;99.30;;;;;;5043162;28;20591;-71
2021/09/24 08:50:42;;;;;;;9.25;2.63;;;19.40;99.10;;;;;;5044421;28;20642;-70
2021/09/24 08:53:11;;;;;;;7.80;2.33;;;19.50;99.00;;;;;;5078659;28;20270;-70
2021/09/24 08:55:37;;;;;;;;;;;19.60;98.90;;;;;;5062447;28;20612;-71
2021/09/24 08:58:03;;;;;;;7.55;2.80;;;19.70;98.80;;;;;;5044956;28;20397;-71
2021/09/24 09:00:30;;;;;;;9.90;2.50;;;19.80;98.60;;;;;;5061187;28;20682;-72
2021/09/24 09:02:59;;;;;;;;;;;20.00;98.40;;;;;;5046894;28;19985;-71
2021/09/24 09:05:26;;;;;;;;;;;20.20;98.10;;;;;;5057875;28;20407;-72
2021/09/24 09:08:04;;;;;;;;;;;20.40;97.80;;;;;;5066517;28;19954;-72
2021/09/24 09:10:40;;;;;;;8.07;2.33;;;20.60;97.40;;;;;;5056767;28;20873;-73
2021/09/24 09:13:07;;;;;;;;;;;21.10;97.20;;;;;;5063167;28;20059;-72
2021/09/24 09:15:32;;;;;;;4.95;2.17;;;22.10;96.60;;;;;;5060410;28;19998;-71
2021/09/24 09:17:58;;;;;;;6.25;1.77;;;23.20;95.10;;;;;;5045021;28;20100;-72
2021/09/24 09:20:25;;;;;;;;;;;24.40;93.30;;;;;;5041383;28;20020;-72
2021/09/24 09:22:52;;;;;;;;;;;25.50;91.20;;;;;;5065204;28;20003;-71
2021/09/24 09:25:23;;;;;;;;;;;26.50;87.10;;;;;;5074374;28;19916;-71
2021/09/24 09:27:48;;;;;;;;;;;27.30;81.30;;;;;;5074192;28;20001;-70
2021/09/24 09:30:15;;;;;;;;;;;27.60;76.80;;;;;;5085412;28;19951;-72
2021/09/24 09:32:41;;;;;;;;;;;27.50;74.50;;;;;;5069361;28;19919;-72
2021/09/24 09:35:07;;;;;;;;;;;27.10;73.80;;;;;;5068384;28;19916;-70
2021/09/24 09:37:38;;;;;;;4.95;2.25;;;26.50;73.80;;;;;;5068623;28;19912;-72
2021/09/24 09:40:13;;;;;;;7.90;2.53;;;25.90;74.60;;;;;;5071288;28;20226;-71
2021/09/24 09:42:42;;;;;;;10.80;2.55;;;25.40;75.50;;;;;;5069957;28;20272;-72
2021/09/24 09:45:09;;;;;;;13.93;3.25;;;24.90;76.70;;;;;;5073810;28;20178;-70
2021/09/24 09:47:37;;;;;;;7.05;2.70;;;24.50;78.50;;;;;;5083790;28;20295;-71
2021/09/24 09:50:14;;;;;;;8.88;2.95;;;24.30;80.00;;;;;;5054723;28;20189;-73
2021/09/24 09:53:01;;;;;;;6.85;2.83;;;24.00;80.60;;;;;;5071582;28;20192;-71
2021/09/24 09:55:29;;;;;;;7.68;3.35;;;23.90;81.90;;;;;;5071578;28;20607;-71
2021/09/24 09:58:02;;;;;;;11.52;3.58;;;23.90;82.50;;;;;;5055802;28;20191;-71
2021/09/24 10:00:30;;;;;;;8.82;3.72;;;24.00;82.50;;;;;;5070885;28;20186;-75
2021/09/24 10:03:04;;;;;;;8.13;3.83;;;24.00;82.60;;;;;;5053681;28;20190;-73
2021/09/24 10:05:36;;;;;;;11.20;3.80;;;24.10;82.30;;;;;;5069416;28;20283;-71
2021/09/24 10:08:22;;;;;;;10.32;3.50;;;24.20;81.70;;;;;;5068661;28;20643;-72
2021/09/24 10:11:03;;;;;;;13.18;4.00;;;24.20;81.70;;;;;;5050130;28;20281;-72
2021/09/24 10:13:33;;;;;;;10.95;3.92;;;24.20;82.30;;;;;;5067512;28;20196;-71
2021/09/24 10:15:59;;;;;;;10.73;3.95;;;24.40;82.40;;;;;;5079432;28;20229;-72
2021/09/24 10:18:25;;;;;;;12.65;3.88;;;24.50;82.50;;;;;;5053213;28;20269;-74
2021/09/24 10:20:51;;;;;;;10.95;3.78;;;24.60;82.20;;;;;;5070367;28;20293;-73
2021/09/24 10:23:18;;;;;;;13.05;4.38;;;24.80;81.80;;;;;;5065612;28;20218;-74
2021/09/24 10:25:49;;;;;;;8.70;3.80;;;24.80;81.20;;;;;;5060279;28;20281;-72
2021/09/24 10:28:15;;;;;;;9.73;3.70;;;24.70;80.70;;;;;;5059132;28;20186;-74
2021/09/24 10:30:41;;;;;;;13.57;3.95;;;24.70;80.20;;;;;;5056136;28;20198;-76
2021/09/24 10:33:15;;;;;;;9.50;3.80;;;24.70;80.00;;;;;;5055816;28;20186;-72
2021/09/24 10:35:51;;;;;;;14.20;4.80;;;24.70;80.00;;;;;;5056223;28;20214;-75
2021/09/24 10:38:22;;;;;;;10.15;5.05;;;24.90;80.20;;;;;;5043288;28;20174;-73
2021/09/24 10:40:53;;;;;;;11.57;5.07;;;24.90;80.30;;;;;;5060158;28;20188;-72
2021/09/24 10:43:19;;;;;;;8.40;4.72;;;24.80;80.30;;;;;;5058124;28;20190;-74
2021/09/24 10:45:45;;;;;;;10.27;4.47;;;24.70;80.20;;;;;;5059777;28;20233;-74
2021/09/24 10:48:16;;;;;;;8.80;4.72;;;24.70;80.40;;;;;;5043137;28;20190;-71
2021/09/24 10:50:51;;;;;;;10.52;4.78;;;24.80;80.50;;;;;;5038518;28;21314;-73
2021/09/24 10:53:23;;;;;;;11.93;4.18;;;24.80;80.40;;;;;;5060552;28;20242;-72
2021/09/24 10:56:09;;;;;;;10.00;4.50;;;24.90;80.10;;;;;;5074194;28;20239;-72
2021/09/24 10:58:38;;;;;;;13.15;4.20;;;25.10;78.90;;;;;;5040925;28;20646;-71
2021/09/24 11:01:07;;;;;;;14.48;4.50;;;25.20;78.50;;;;;;5059832;28;20187;-70
2021/09/24 11:03:48;;;;;;;21.02;4.97;;;25.30;78.10;;;;;;5060488;28;20210;-70
2021/09/24 11:06:15;;;;;;;12.80;5.10;;;25.40;77.90;;;;;;5062216;28;20192;-71
2021/09/24 11:08:43;;;;;;;14.90;4.88;;;25.40;77.10;;;;;;5060211;28;20216;-74
2021/09/24 11:11:14;;;;;;;14.23;5.15;;;25.30;76.70;;;;;;5057810;28;20218;-74
2021/09/24 11:13:43;;;;;;;12.55;5.68;;;25.20;76.70;;;;;;5060980;28;20236;-72
2021/09/24 11:16:14;;;;;;;12.82;5.50;;;25.10;77.10;;;;;;5039172;28;20264;-72
2021/09/24 11:18:53;;;;;;;10.57;4.40;;;25.00;77.60;;;;;;5059014;28;20187;-73
2021/09/24 11:21:22;;;;;;;13.35;5.00;;;25.00;77.60;;;;;;5058246;28;20183;-73
2021/09/24 11:23:50;;;;;;;12.30;4.47;;;24.90;77.50;;;;;;5059750;28;20214;-74
2021/09/24 11:26:30;;;;;;;14.32;4.22;;;24.80;77.80;;;;;;5058424;28;20194;-74
2021/09/24 11:29:10;;;;;;;14.40;4.32;;;24.60;78.20;;;;;;5060638;28;20190;-73
2021/09/24 11:31:55;;;;;;;10.20;4.15;;;24.60;78.60;;;;;;5062278;28;20248;-75
2021/09/24 11:34:33;;;;;;;14.75;2.97;;;24.50;79.00;;;;;;5060199;28;20608;-78
2021/09/24 11:37:02;;;;;;;14.43;2.55;;;24.50;79.20;;;;;;5063542;28;20193;-70
2021/09/24 11:39:28;;;;;;;4.88;2.22;;;24.50;78.50;;;;;;5061813;28;20666;-73
2021/09/24 11:42:04;;;;;;;9.85;2.20;;;24.50;77.70;;;;;;5060732;28;20178;-70
2021/09/24 11:44:30;;;;;;;14.27;2.53;;;24.50;76.80;;;;;;5060696;28;20686;-74
2021/09/24 11:46:56;;;;;;;6.97;2.20;;;24.50;76.50;;;;;;5062445;28;20183;-71
2021/09/24 11:49:22;;;;;;;9.15;2.63;;;24.50;76.50;;;;;;5043253;28;20204;-73
2021/09/24 11:51:58;;;;;;;6.50;2.20;;;24.60;76.10;;;;;;5045119;28;20205;-74
2021/09/24 11:54:24;;;;;;;14.60;2.72;;;24.60;76.10;;;;;;5043125;28;20598;-75
2021/09/24 11:56:50;;;;;;;9.00;2.63;;;24.60;76.50;;;;;;5045419;28;20178;-74
2021/09/24 11:59:16;;;;;;;9.15;2.38;;;24.70;76.50;;;;;;5061040;28;20185;-74
2021/09/24 12:01:44;;;;;;;5.28;2.00;;;24.80;76.30;;;;;;5060504;28;20182;-73
2021/09/24 12:04:12;;;;;;;8.85;2.10;;;24.90;75.50;;;;;;5060617;28;20551;-73
2021/09/24 12:06:40;;;;;;;8.48;1.90;;;25.00;74.70;;;;;;5049838;28;20179;-75
2021/09/24 12:09:15;;;;;;;7.50;1.77;;;25.10;74.00;;;;;;5056333;28;20290;-73
2021/09/24 12:11:41;;;;;;;7.05;2.22;;;25.20;73.10;;;;;;5054791;28;20289;-73
2021/09/24 12:14:07;;;;;;;14.82;2.60;;;25.20;73.20;;;;;;5045156;28;20190;-72
2021/09/24 12:16:38;;;;;;;11.75;2.58;;;25.30;73.30;;;;;;5060523;28;20206;-73
2021/09/24 12:19:13;;;;;;;13.05;2.45;;;25.30;73.50;;;;;;5054936;28;20187;-70
2021/09/24 12:21:38;;;;;;;16.33;2.88;;;25.50;73.20;;;;;;5040989;28;20194;-72
2021/09/24 12:24:13;;;;;;;9.07;2.10;;;25.60;72.60;;;;;;5058925;28;20345;-73
2021/09/24 12:27:03;;;;;;;10.68;2.42;;;25.50;72.40;;;;;;5062752;28;20300;-71
2021/09/24 12:29:30;;;;;;;10.63;2.33;;;25.50;72.50;;;;;;5053003;28;20206;-75
2021/09/24 12:31:57;;;;;;;8.30;2.40;;;25.40;72.80;;;;;;5060566;28;20677;-74
2021/09/24 12:34:52;;;;;;;18.33;2.28;;;25.30;72.70;;;;;;5075611;28;20567;-71
2021/09/24 12:37:40;;;;;;;7.32;1.80;;;25.00;73.10;;;;;;5061970;28;20190;-73
2021/09/24 12:40:09;;;;;;;14.65;1.95;;;24.80;73.60;;;;;;5025606;28;20198;-72
2021/09/24 12:43:02;;;;;;;16.75;2.03;;;24.80;73.80;;;;;;5060426;28;20182;-74
2021/09/24 12:45:30;;;;;;;13.45;1.83;;;24.80;73.20;;;;;;5057333;28;20761;-74